createdAt,value
2017-07-06T00:00:56.224Z,72.40
2017-07-06T00:03:23.775Z,73.60
2017-07-06T00:05:51.695Z,74.30
2017-07-06T00:08:19.221Z,73.50
2017-07-06T00:10:46.748Z,72.70
2017-07-06T00:13:15.113Z,72.80
2017-07-06T00:15:42.634Z,72.80
2017-07-06T00:18:10.165Z,74.30
2017-07-06T00:20:37.728Z,74.40
2017-07-06T00:23:05.247Z,74.50
2017-07-06T00:25:32.774Z,73.80
2017-07-06T00:28:00.357Z,74.40
2017-07-06T00:30:27.885Z,75.10
2017-07-06T00:32:55.420Z,75.60
2017-07-06T00:35:22.978Z,76.50
2017-07-06T00:37:50.554Z,76.30
2017-07-06T00:40:18.084Z,76.20
2017-07-06T00:42:45.600Z,75.80
2017-07-06T00:45:13.148Z,77.70
2017-07-06T00:47:40.712Z,76.70
2017-07-06T00:50:08.272Z,77.90
2017-07-06T00:52:35.799Z,76.80
2017-07-06T00:55:03.355Z,77.10
2017-07-06T00:57:30.891Z,75.30
2017-07-06T00:59:58.409Z,74.70
2017-07-06T01:02:26.206Z,74.00
2017-07-06T01:04:53.753Z,74.30
2017-07-06T01:07:22.046Z,74.00
2017-07-06T01:09:49.622Z,74.00
2017-07-06T01:12:17.149Z,74.00
2017-07-06T01:14:44.684Z,73.80
2017-07-06T01:17:13.036Z,75.90
2017-07-06T01:19:40.568Z,75.70
2017-07-06T01:22:08.094Z,76.00
2017-07-06T01:24:35.674Z,76.40
2017-07-06T01:27:03.186Z,76.00
2017-07-06T01:29:31.574Z,77.00
2017-07-06T01:31:59.176Z,75.70
2017-07-06T01:34:26.705Z,74.60
2017-07-06T01:36:54.220Z,76.70
2017-07-06T01:39:21.832Z,75.90
2017-07-06T01:41:49.341Z,76.00
2017-07-06T01:44:16.881Z,75.80
2017-07-06T01:46:44.443Z,75.10
2017-07-06T01:49:12.009Z,74.30
2017-07-06T01:51:39.524Z,75.10
2017-07-06T01:54:07.112Z,74.90
2017-07-06T01:56:34.639Z,74.70
2017-07-06T01:59:02.156Z,75.90
2017-07-06T02:01:29.715Z,74.40
2017-07-06T02:03:57.240Z,75.70
2017-07-06T02:06:24.768Z,77.20
2017-07-06T02:08:52.331Z,76.90
2017-07-06T02:11:19.854Z,76.20
2017-07-06T02:13:48.150Z,76.90
2017-07-06T02:16:15.705Z,76.80
2017-07-06T02:18:43.216Z,75.00
2017-07-06T02:21:10.737Z,76.10
2017-07-06T02:23:38.280Z,77.40
2017-07-06T02:26:05.844Z,77.80
2017-07-06T02:28:33.367Z,77.20
2017-07-06T02:31:01.655Z,74.90
2017-07-06T02:33:29.993Z,75.40
2017-07-06T02:35:57.526Z,75.30
2017-07-06T02:38:25.065Z,75.10
2017-07-06T02:40:52.607Z,75.40
2017-07-06T02:43:20.901Z,75.40
2017-07-06T02:45:48.464Z,75.40
2017-07-06T02:48:15.976Z,75.50
2017-07-06T02:50:43.485Z,75.00
2017-07-06T02:53:11.050Z,75.90
2017-07-06T02:55:38.576Z,76.00
2017-07-06T02:58:06.142Z,75.90
2017-07-06T03:00:33.679Z,74.80
2017-07-06T03:03:01.213Z,74.10
2017-07-06T03:05:28.803Z,74.50
2017-07-06T03:07:57.081Z,76.00
2017-07-06T03:10:24.593Z,75.80
2017-07-06T03:12:52.150Z,75.80
2017-07-06T03:15:19.663Z,73.60
2017-07-06T03:17:47.264Z,76.10
2017-07-06T03:20:14.786Z,76.30
2017-07-06T03:22:42.328Z,77.60
2017-07-06T03:25:09.883Z,77.60
2017-07-06T03:27:38.160Z,77.90
2017-07-06T03:30:05.719Z,77.70
2017-07-06T03:32:33.246Z,77.80
2017-07-06T03:35:00.817Z,76.90
2017-07-06T03:37:28.368Z,75.00
2017-07-06T03:39:56.656Z,75.50
2017-07-06T03:42:24.233Z,75.50
2017-07-06T03:44:51.772Z,76.10
2017-07-06T03:47:20.084Z,75.30
2017-07-06T03:49:47.637Z,75.10
2017-07-06T03:52:15.158Z,74.80
2017-07-06T03:54:43.484Z,74.20
2017-07-06T03:57:10.991Z,74.10
2017-07-06T03:59:39.273Z,73.30
2017-07-06T04:02:07.600Z,73.80
2017-07-06T04:04:35.129Z,73.80
2017-07-06T04:07:02.668Z,73.60
2017-07-06T04:09:30.214Z,73.70
2017-07-06T04:11:58.538Z,73.60
2017-07-06T04:14:26.093Z,73.50
2017-07-06T04:16:53.636Z,74.90
2017-07-06T04:19:21.191Z,74.20
2017-07-06T04:21:48.716Z,73.90
2017-07-06T04:24:16.235Z,74.70
2017-07-06T04:26:43.804Z,74.70
2017-07-06T04:29:11.320Z,74.80
2017-07-06T04:31:38.824Z,74.20
2017-07-06T04:34:06.406Z,73.90
2017-07-06T04:36:34.696Z,73.50
2017-07-06T04:39:02.308Z,73.40
2017-07-06T04:41:29.859Z,73.10
2017-07-06T04:43:57.458Z,72.20
2017-07-06T04:46:25.009Z,72.90
2017-07-06T04:48:52.531Z,72.30
2017-07-06T04:51:20.236Z,71.60
2017-07-06T04:53:48.548Z,72.00
2017-07-06T04:56:16.060Z,71.90
2017-07-06T04:58:43.616Z,71.20
2017-07-06T05:01:11.137Z,69.70
2017-07-06T05:03:38.696Z,70.00
2017-07-06T05:06:06.204Z,68.10
2017-07-06T05:08:33.743Z,68.10
2017-07-06T05:11:01.325Z,67.60
2017-07-06T05:13:28.848Z,68.80
2017-07-06T05:15:56.365Z,64.50
2017-07-06T05:18:23.945Z,63.40
2017-07-06T05:20:51.453Z,62.60
2017-07-06T05:23:18.971Z,63.10
2017-07-06T05:25:46.520Z,64.40
2017-07-06T05:28:14.038Z,66.60
2017-07-06T05:30:42.153Z,65.50
2017-07-06T05:33:09.744Z,64.00
2017-07-06T05:35:37.276Z,66.20
2017-07-06T05:38:04.833Z,65.40
2017-07-06T05:40:32.380Z,65.60
2017-07-06T05:42:59.889Z,65.70
2017-07-06T05:45:27.412Z,64.50
2017-07-06T05:47:54.980Z,63.80
2017-07-06T05:50:22.488Z,65.20
2017-07-06T05:52:49.998Z,67.30
2017-07-06T05:55:18.328Z,64.60
2017-07-06T05:57:45.848Z,64.50
2017-07-06T06:00:14.181Z,64.10
2017-07-06T06:02:41.712Z,63.90
2017-07-06T06:05:09.229Z,63.50
2017-07-06T06:07:36.792Z,65.00
2017-07-06T06:10:04.310Z,61.50
2017-07-06T06:12:31.824Z,61.30
2017-07-06T06:14:59.400Z,61.50
2017-07-06T06:17:26.912Z,63.90
2017-07-06T06:19:55.188Z,60.70
2017-07-06T06:22:22.743Z,60.80
2017-07-06T06:24:50.264Z,60.00
2017-07-06T06:27:17.778Z,60.30
2017-07-06T06:29:45.339Z,63.20
2017-07-06T06:32:12.859Z,59.20
2017-07-06T06:34:40.447Z,58.80
2017-07-06T06:37:07.976Z,58.10
2017-07-06T06:39:35.501Z,58.80
2017-07-06T06:42:03.064Z,58.70
2017-07-06T06:44:30.584Z,59.20
2017-07-06T06:46:58.117Z,58.60
2017-07-06T06:49:25.703Z,58.50
2017-07-06T06:51:53.224Z,57.70
2017-07-06T06:54:20.736Z,57.10
2017-07-06T06:56:48.285Z,57.60
2017-07-06T06:59:15.843Z,56.50
2017-07-06T07:01:43.367Z,56.70
2017-07-06T07:04:11.700Z,56.30
2017-07-06T07:06:39.225Z,56.30
2017-07-06T07:09:06.757Z,54.70
2017-07-06T07:11:34.316Z,53.00
2017-07-06T07:14:01.842Z,52.00
2017-07-06T07:16:29.368Z,52.50
2017-07-06T07:18:56.924Z,50.70
2017-07-06T07:21:24.453Z,50.60
2017-07-06T07:23:52.791Z,51.10
2017-07-06T07:26:20.304Z,51.10
2017-07-06T07:28:47.839Z,50.00
2017-07-06T07:31:15.392Z,50.20
2017-07-06T07:33:42.909Z,49.80
2017-07-06T07:36:10.484Z,49.30
2017-07-06T07:38:38.006Z,49.20
2017-07-06T07:41:05.520Z,50.00
2017-07-06T07:43:33.079Z,48.40
2017-07-06T07:46:01.426Z,49.90
2017-07-06T07:48:28.941Z,49.80
2017-07-06T07:50:56.497Z,48.20
2017-07-06T07:53:24.043Z,48.00
2017-07-06T07:55:51.565Z,47.90
2017-07-06T07:58:19.820Z,48.30
2017-07-06T08:00:47.355Z,47.70
2017-07-06T08:03:14.925Z,47.20
2017-07-06T08:05:42.448Z,47.60
2017-07-06T08:08:09.967Z,48.40
2017-07-06T08:10:37.564Z,46.60
2017-07-06T08:13:05.839Z,44.70
2017-07-06T08:15:33.344Z,44.70
2017-07-06T08:18:00.905Z,45.50
2017-07-06T08:20:28.429Z,46.10
2017-07-06T08:22:55.988Z,44.90
2017-07-06T08:25:23.511Z,44.60
2017-07-06T08:27:51.035Z,44.90
2017-07-06T08:30:18.604Z,44.30
2017-07-06T08:32:46.174Z,44.30
2017-07-06T08:35:13.693Z,43.40
2017-07-06T08:37:41.207Z,43.40
2017-07-06T08:40:09.537Z,41.40
2017-07-06T08:42:37.056Z,41.40
2017-07-06T08:45:04.591Z,41.60
2017-07-06T08:47:32.929Z,41.90
2017-07-06T08:50:00.460Z,41.80
2017-07-06T08:52:27.977Z,39.20
2017-07-06T08:54:56.304Z,41.70
2017-07-06T08:57:23.932Z,42.20
2017-07-06T08:59:51.456Z,40.00
2017-07-06T09:02:19.300Z,38.80
2017-07-06T09:04:46.831Z,39.30
2017-07-06T09:07:14.359Z,39.50
2017-07-06T09:09:41.932Z,39.20
2017-07-06T09:12:09.453Z,39.20
2017-07-06T09:14:36.988Z,37.60
2017-07-06T09:17:04.536Z,39.40
2017-07-06T09:19:32.067Z,37.90
2017-07-06T09:21:59.619Z,39.10
2017-07-06T09:24:27.140Z,40.00
2017-07-06T09:26:54.673Z,37.00
2017-07-06T09:29:22.231Z,38.10
2017-07-06T09:31:49.776Z,39.00
2017-07-06T09:34:17.344Z,39.00
2017-07-06T09:36:44.851Z,37.90
2017-07-06T09:39:12.381Z,39.20
2017-07-06T09:41:39.936Z,35.50
2017-07-06T09:44:07.453Z,35.70
2017-07-06T09:46:34.976Z,38.20
2017-07-06T09:49:02.525Z,38.50
2017-07-06T09:51:30.036Z,36.50
2017-07-06T09:53:57.590Z,35.90
2017-07-06T09:56:25.103Z,37.20
2017-07-06T09:58:52.620Z,37.30
2017-07-06T10:01:20.185Z,37.50
2017-07-06T10:03:47.725Z,35.90
2017-07-06T10:06:15.248Z,36.70
2017-07-06T10:08:42.792Z,36.90
2017-07-06T10:11:10.304Z,35.60
2017-07-06T10:13:37.917Z,36.70
2017-07-06T10:16:05.427Z,35.60
2017-07-06T10:18:32.948Z,37.80
2017-07-06T10:21:00.508Z,37.50
2017-07-06T10:23:28.033Z,35.50
2017-07-06T10:25:56.320Z,38.20
2017-07-06T10:28:24.652Z,34.90
2017-07-06T10:30:52.172Z,34.80
2017-07-06T10:33:19.704Z,36.50
2017-07-06T10:35:47.262Z,36.50
2017-07-06T10:38:14.833Z,35.50
2017-07-06T10:40:42.357Z,33.70
2017-07-06T10:43:09.886Z,35.40
2017-07-06T10:45:37.447Z,35.10
2017-07-06T10:48:04.956Z,35.10
2017-07-06T10:50:32.493Z,35.20
2017-07-06T10:53:00.050Z,35.30
2017-07-06T10:55:27.615Z,35.50
2017-07-06T10:57:55.189Z,33.10
2017-07-06T11:00:23.473Z,35.00
2017-07-06T11:02:50.989Z,34.90
2017-07-06T11:05:18.548Z,33.70
2017-07-06T11:07:46.076Z,34.40
2017-07-06T11:10:13.605Z,34.20
2017-07-06T11:12:41.161Z,34.40
2017-07-06T11:15:09.455Z,35.40
2017-07-06T11:17:36.963Z,35.30
2017-07-06T11:20:04.540Z,33.60
2017-07-06T11:22:32.068Z,34.00
2017-07-06T11:24:59.593Z,34.70
2017-07-06T11:27:27.153Z,32.90
2017-07-06T11:29:54.666Z,32.90
2017-07-06T11:32:22.179Z,33.40
2017-07-06T11:34:49.741Z,32.80
2017-07-06T11:37:17.259Z,34.10
2017-07-06T11:39:44.788Z,33.10
2017-07-06T11:42:12.372Z,31.00
2017-07-06T11:44:39.887Z,32.80
2017-07-06T11:47:07.396Z,31.60
2017-07-06T11:49:34.987Z,30.60
2017-07-06T11:52:02.500Z,33.10
2017-07-06T11:54:30.013Z,31.40
2017-07-06T11:56:57.800Z,32.90
2017-07-06T11:59:26.081Z,32.10
2017-07-06T12:01:53.608Z,32.10
2017-07-06T12:04:21.150Z,30.90
2017-07-06T12:06:48.656Z,30.00
2017-07-06T12:09:16.991Z,32.20
2017-07-06T12:11:44.504Z,32.10
2017-07-06T12:14:12.080Z,30.00
2017-07-06T12:16:39.605Z,31.00
2017-07-06T12:19:07.899Z,30.40
2017-07-06T12:21:36.213Z,30.30
2017-07-06T12:24:03.813Z,30.00
2017-07-06T12:26:32.103Z,29.40
2017-07-06T12:28:59.623Z,29.40
2017-07-06T12:31:27.200Z,29.40
2017-07-06T12:33:55.480Z,30.40
2017-07-06T12:36:22.996Z,30.50
2017-07-06T12:38:50.546Z,30.90
2017-07-06T12:41:18.064Z,29.90
2017-07-06T12:43:45.641Z,30.10
2017-07-06T12:46:13.152Z,27.80
2017-07-06T12:48:40.712Z,30.20
2017-07-06T12:51:08.252Z,30.50
2017-07-06T12:53:35.799Z,30.60
2017-07-06T12:56:03.377Z,31.40
2017-07-06T12:58:30.890Z,30.50
2017-07-06T13:00:58.397Z,30.70
2017-07-06T13:03:25.984Z,30.70
2017-07-06T13:05:53.504Z,32.20
2017-07-06T13:08:21.029Z,31.70
2017-07-06T13:10:48.590Z,31.80
2017-07-06T13:13:16.101Z,29.70
2017-07-06T13:15:43.613Z,33.60
2017-07-06T13:18:11.159Z,31.70
2017-07-06T13:20:38.688Z,29.20
2017-07-06T13:23:06.252Z,29.60
2017-07-06T13:25:33.821Z,31.80
2017-07-06T13:28:01.345Z,33.80
2017-07-06T13:30:28.862Z,32.10
2017-07-06T13:32:56.425Z,34.20
2017-07-06T13:35:23.950Z,33.60
2017-07-06T13:37:51.458Z,32.70
2017-07-06T13:40:19.027Z,34.30
2017-07-06T13:42:46.556Z,33.70
2017-07-06T13:45:14.092Z,35.10
2017-07-06T13:47:41.646Z,34.10
2017-07-06T13:50:09.177Z,33.70
2017-07-06T13:52:36.753Z,33.90
2017-07-06T13:55:04.267Z,32.80
2017-07-06T13:57:32.548Z,33.70
2017-07-06T14:00:00.926Z,33.40
2017-07-06T14:02:29.200Z,33.10
2017-07-06T14:04:57.478Z,35.00
2017-07-06T14:07:25.048Z,34.80
2017-07-06T14:09:52.572Z,35.50
2017-07-06T14:12:20.092Z,34.40
2017-07-06T14:14:47.651Z,33.30
2017-07-06T14:17:15.181Z,34.20
2017-07-06T14:19:42.707Z,33.90
2017-07-06T14:22:10.244Z,34.90
2017-07-06T14:24:37.803Z,33.20
2017-07-06T14:27:05.309Z,30.80
2017-07-06T14:29:32.841Z,33.20
2017-07-06T14:32:00.388Z,32.50
2017-07-06T14:34:27.931Z,33.30
2017-07-06T14:36:55.488Z,33.70
2017-07-06T14:39:23.005Z,33.40
2017-07-06T14:41:50.533Z,32.30
2017-07-06T14:44:18.086Z,32.20
2017-07-06T14:46:45.595Z,31.70
2017-07-06T14:49:13.116Z,36.00
2017-07-06T14:51:40.685Z,32.90
2017-07-06T14:54:08.204Z,32.40
2017-07-06T14:56:35.715Z,31.00
2017-07-06T14:59:03.312Z,32.50
2017-07-06T15:01:30.840Z,32.70
2017-07-06T15:03:58.408Z,33.50
2017-07-06T15:06:26.175Z,34.50
2017-07-06T15:08:53.709Z,33.40
2017-07-06T15:11:21.258Z,34.80
2017-07-06T15:13:48.823Z,35.00
2017-07-06T15:16:16.340Z,36.70
2017-07-06T15:18:43.852Z,36.80
2017-07-06T15:21:11.420Z,35.60
2017-07-06T15:23:38.939Z,34.90
2017-07-06T15:26:06.468Z,34.90
2017-07-06T15:28:34.059Z,35.30
2017-07-06T15:31:01.576Z,35.40
2017-07-06T15:33:29.092Z,34.70
2017-07-06T15:35:56.642Z,33.10
2017-07-06T15:38:24.200Z,35.60
2017-07-06T15:40:51.736Z,35.20
2017-07-06T15:43:19.250Z,33.90
2017-07-06T15:45:46.845Z,34.10
2017-07-06T15:48:14.372Z,35.20
2017-07-06T15:50:42.480Z,35.10
2017-07-06T15:53:10.043Z,35.40
2017-07-06T15:55:37.588Z,35.80
2017-07-06T15:58:05.870Z,35.30
2017-07-06T16:00:33.443Z,35.20
2017-07-06T16:03:00.963Z,35.50
2017-07-06T16:05:28.477Z,36.80
2017-07-06T16:07:56.041Z,37.30
2017-07-06T16:10:23.565Z,38.00
2017-07-06T16:12:51.148Z,38.20
2017-07-06T16:15:18.735Z,38.50
2017-07-06T16:17:46.259Z,40.50
2017-07-06T16:20:13.845Z,38.70
2017-07-06T16:22:41.360Z,38.10
2017-07-06T16:25:08.892Z,39.80
2017-07-06T16:27:37.316Z,39.60
2017-07-06T16:30:04.844Z,39.40
2017-07-06T16:32:32.348Z,40.10
2017-07-06T16:34:59.892Z,39.70
2017-07-06T16:37:27.419Z,39.00
2017-07-06T16:39:54.980Z,39.80
2017-07-06T16:42:22.497Z,41.60
2017-07-06T16:44:50.027Z,41.40
2017-07-06T16:47:17.575Z,41.60
2017-07-06T16:49:45.095Z,40.90
2017-07-06T16:52:13.375Z,43.60
2017-07-06T16:54:41.697Z,42.30
2017-07-06T16:57:09.211Z,42.10
2017-07-06T16:59:36.727Z,39.70
2017-07-06T17:02:04.262Z,40.30
2017-07-06T17:04:31.773Z,42.30
2017-07-06T17:07:00.088Z,44.70
2017-07-06T17:09:27.609Z,44.60
2017-07-06T17:11:55.947Z,45.80
2017-07-06T17:14:23.476Z,45.70
2017-07-06T17:16:51.016Z,45.40
2017-07-06T17:19:18.608Z,45.70
2017-07-06T17:21:46.126Z,46.50
2017-07-06T17:24:13.648Z,46.90
2017-07-06T17:26:41.200Z,47.20
2017-07-06T17:29:08.712Z,47.80
2017-07-06T17:31:36.263Z,48.80
2017-07-06T17:34:03.783Z,50.20
2017-07-06T17:36:32.097Z,51.30
2017-07-06T17:39:00.017Z,51.60
2017-07-06T17:41:28.319Z,52.10
2017-07-06T17:43:55.859Z,52.00
2017-07-06T17:46:23.412Z,53.30
2017-07-06T17:48:50.976Z,53.80
2017-07-06T17:51:18.506Z,54.60
2017-07-06T17:53:46.024Z,54.60
2017-07-06T17:56:13.661Z,55.10
2017-07-06T17:58:41.936Z,53.40
2017-07-06T18:01:10.224Z,54.20
2017-07-06T18:03:37.779Z,54.20
2017-07-06T18:06:05.344Z,54.50
2017-07-06T18:08:32.871Z,53.90
2017-07-06T18:11:00.389Z,53.00
2017-07-06T18:13:27.948Z,53.20
2017-07-06T18:15:55.481Z,54.60
2017-07-06T18:18:23.007Z,55.00
2017-07-06T18:20:50.582Z,55.60
2017-07-06T18:23:18.092Z,55.90
2017-07-06T18:25:45.625Z,56.60
2017-07-06T18:28:13.167Z,57.30
2017-07-06T18:30:40.677Z,57.30
2017-07-06T18:33:08.223Z,56.90
2017-07-06T18:35:35.785Z,56.70
2017-07-06T18:38:03.306Z,56.30
2017-07-06T18:40:30.827Z,56.80
2017-07-06T18:42:58.378Z,56.90
2017-07-06T18:45:25.896Z,56.80
2017-07-06T18:47:53.444Z,56.50
2017-07-06T18:50:20.972Z,56.10
2017-07-06T18:52:48.500Z,56.30
2017-07-06T18:55:16.068Z,55.90
2017-07-06T18:57:44.359Z,55.60
2017-07-06T19:00:11.876Z,55.50
2017-07-06T19:02:39.419Z,56.10
2017-07-06T19:05:06.931Z,56.20
2017-07-06T19:07:34.508Z,56.50
2017-07-06T19:10:02.069Z,56.80
2017-07-06T19:12:29.638Z,57.20
2017-07-06T19:14:57.144Z,57.70
2017-07-06T19:17:24.656Z,58.50
2017-07-06T19:19:52.220Z,57.80
2017-07-06T19:22:19.747Z,58.00
2017-07-06T19:24:47.272Z,57.20
2017-07-06T19:27:14.872Z,57.50
2017-07-06T19:29:42.430Z,57.60
2017-07-06T19:32:09.945Z,57.60
2017-07-06T19:34:37.498Z,57.40
2017-07-06T19:37:05.795Z,56.60
2017-07-06T19:39:33.324Z,56.30
2017-07-06T19:42:00.879Z,57.30
2017-07-06T19:44:28.393Z,58.20
2017-07-06T19:46:55.905Z,59.30
2017-07-06T19:49:23.470Z,58.70
2017-07-06T19:51:51.765Z,59.90
2017-07-06T19:54:19.280Z,59.90
2017-07-06T19:56:46.852Z,60.50
2017-07-06T19:59:14.363Z,61.60
2017-07-06T20:01:41.873Z,61.10
2017-07-06T20:04:10.240Z,59.80
2017-07-06T20:06:37.752Z,59.80
2017-07-06T20:09:05.261Z,59.90
2017-07-06T20:11:32.821Z,60.40
2017-07-06T20:14:00.368Z,61.60
2017-07-06T20:16:27.939Z,62.90
2017-07-06T20:18:55.455Z,61.50
2017-07-06T20:21:23.017Z,61.50
2017-07-06T20:23:50.531Z,61.10
2017-07-06T20:26:18.057Z,61.10
2017-07-06T20:28:45.612Z,60.90
2017-07-06T20:31:13.148Z,61.60
2017-07-06T20:33:41.054Z,63.00
2017-07-06T20:36:08.564Z,64.00
2017-07-06T20:38:36.077Z,62.80
2017-07-06T20:41:03.643Z,63.20
2017-07-06T20:43:31.151Z,64.50
2017-07-06T20:45:58.677Z,64.40
2017-07-06T20:48:26.239Z,64.90
2017-07-06T20:50:53.753Z,64.80
2017-07-06T20:53:22.084Z,64.60
2017-07-06T20:55:49.636Z,64.60
2017-07-06T20:58:17.203Z,65.90
2017-07-06T21:00:44.759Z,65.50
2017-07-06T21:03:12.365Z,65.50
2017-07-06T21:05:39.952Z,65.70
2017-07-06T21:08:07.580Z,66.20
2017-07-06T21:10:35.856Z,66.50
2017-07-06T21:13:04.135Z,66.30
2017-07-06T21:15:31.711Z,66.20
2017-07-06T21:17:59.276Z,66.70
2017-07-06T21:20:26.852Z,66.80
2017-07-06T21:22:54.470Z,64.90
2017-07-06T21:25:22.059Z,64.10
2017-07-06T21:27:49.576Z,63.40
2017-07-06T21:30:18.008Z,63.00
2017-07-06T21:32:45.523Z,63.00
2017-07-06T21:35:13.079Z,64.60
2017-07-06T21:37:40.643Z,64.80
2017-07-06T21:40:08.158Z,63.50
2017-07-06T21:42:35.710Z,63.70
2017-07-06T21:45:03.307Z,64.50
2017-07-06T21:47:31.587Z,64.80
2017-07-06T21:49:59.876Z,65.20
2017-07-06T21:52:27.476Z,65.20
2017-07-06T21:54:55.013Z,65.60
2017-07-06T21:57:22.540Z,66.30
2017-07-06T21:59:50.103Z,66.50
2017-07-06T22:02:17.616Z,65.70
2017-07-06T22:04:45.156Z,65.30
2017-07-06T22:07:12.670Z,64.70
2017-07-06T22:09:40.225Z,64.20
2017-07-06T22:12:07.746Z,63.60
2017-07-06T22:14:35.264Z,63.80
2017-07-06T22:17:02.819Z,63.50
2017-07-06T22:19:30.385Z,62.80
2017-07-06T22:21:57.903Z,63.30
2017-07-06T22:24:25.421Z,63.30
2017-07-06T22:26:52.984Z,63.10
2017-07-06T22:29:20.499Z,62.10
2017-07-06T22:31:48.020Z,62.10
2017-07-06T22:34:15.585Z,61.90
2017-07-06T22:36:43.112Z,62.50
2017-07-06T22:39:10.679Z,62.80
2017-07-06T22:41:38.197Z,64.50
2017-07-06T22:44:05.721Z,64.10
2017-07-06T22:46:34.040Z,65.00
2017-07-06T22:49:01.568Z,65.00
2017-07-06T22:51:29.083Z,65.30
2017-07-06T22:53:56.652Z,65.00
2017-07-06T22:56:24.181Z,65.00
2017-07-06T22:58:51.714Z,66.10
2017-07-06T23:01:19.272Z,65.20
2017-07-06T23:03:46.789Z,64.90
2017-07-06T23:06:15.076Z,65.20
2017-07-06T23:08:42.633Z,64.60
2017-07-06T23:11:10.915Z,64.50
2017-07-06T23:13:38.441Z,64.40
2017-07-06T23:16:06.004Z,64.50
2017-07-06T23:18:33.537Z,64.90
2017-07-06T23:21:01.065Z,65.20
2017-07-06T23:23:28.624Z,64.70
2017-07-06T23:25:56.140Z,64.60
2017-07-06T23:28:24.425Z,65.00
2017-07-06T23:30:51.987Z,64.80
2017-07-06T23:33:19.524Z,65.30
2017-07-06T23:35:47.088Z,65.60
2017-07-06T23:38:14.609Z,65.40
2017-07-06T23:40:42.173Z,66.30
2017-07-06T23:43:09.688Z,66.30
2017-07-06T23:45:37.221Z,67.00
2017-07-06T23:48:04.784Z,66.80
2017-07-06T23:50:33.086Z,66.00
2017-07-06T23:53:00.648Z,65.90
2017-07-06T23:55:28.165Z,66.10
2017-07-06T23:57:55.676Z,66.30
